createdAt,value
2023-02-15T00:00:20.096Z,22.85
2023-02-15T00:03:05.976Z,23.77
2023-02-15T00:05:51.468Z,24.40
2023-02-15T00:08:37.213Z,24.05
2023-02-15T00:11:41.200Z,23.02
2023-02-15T00:14:28.785Z,25.08
2023-02-15T00:17:14.525Z,25.13
2023-02-15T00:20:00.425Z,25.85
2023-02-15T00:22:45.992Z,26.48
2023-02-15T00:25:31.565Z,27.77
2023-02-15T00:28:17.301Z,30.35
2023-02-15T00:31:10.182Z,30.13
2023-02-15T00:33:55.995Z,28.17
2023-02-15T00:36:41.580Z,28.52
2023-02-15T00:39:28.372Z,33.35
2023-02-15T00:42:13.739Z,29.13
2023-02-15T00:44:59.403Z,30.25
2023-02-15T00:47:49.777Z,29.20
2023-02-15T00:50:35.355Z,26.98
2023-02-15T00:53:23.401Z,26.27
2023-02-15T00:56:09.492Z,24.63
2023-02-15T00:58:55.459Z,23.95
2023-02-15T01:01:41.479Z,22.27
2023-02-15T01:04:28.809Z,23.10
2023-02-15T01:07:16.607Z,23.88
2023-02-15T01:10:02.125Z,22.67
2023-02-15T01:12:48.182Z,24.50
2023-02-15T01:15:35.736Z,25.70
2023-02-15T01:18:22.173Z,25.55
2023-02-15T01:21:15.034Z,28.30
2023-02-15T01:24:03.440Z,25.20
2023-02-15T01:26:49.110Z,25.02
2023-02-15T01:29:34.816Z,24.60
2023-02-15T01:32:20.287Z,23.85
2023-02-15T01:35:07.096Z,24.67
2023-02-15T01:37:55.151Z,23.92
2023-02-15T01:40:40.946Z,23.20
2023-02-15T01:43:41.163Z,23.33
2023-02-15T01:46:32.072Z,23.35
2023-02-15T01:49:20.484Z,22.50
2023-02-15T01:52:06.134Z,22.00
2023-02-15T01:54:53.309Z,26.65
2023-02-15T01:57:39.861Z,23.85
2023-02-15T02:00:25.945Z,23.70
2023-02-15T02:03:12.586Z,21.88
2023-02-15T02:05:58.364Z,25.20
2023-02-15T02:08:44.981Z,26.08
2023-02-15T02:11:32.949Z,26.67
2023-02-15T02:14:18.943Z,24.65
2023-02-15T02:17:13.340Z,25.40
2023-02-15T02:20:17.718Z,25.23
2023-02-15T02:23:25.052Z,26.73
2023-02-15T02:26:58.682Z,25.38
2023-02-15T02:30:07.337Z,27.05
2023-02-15T02:33:21.303Z,26.43
2023-02-15T02:36:16.048Z,26.90
2023-02-15T02:39:19.554Z,26.92
2023-02-15T02:42:13.852Z,26.58
2023-02-15T02:45:04.666Z,26.55
2023-02-15T02:47:54.144Z,25.40
2023-02-15T02:50:43.739Z,25.55
2023-02-15T02:53:31.204Z,26.33
2023-02-15T02:56:23.650Z,25.50
2023-02-15T02:59:14.020Z,26.73
2023-02-15T03:02:05.730Z,26.67
2023-02-15T03:04:59.584Z,25.13
2023-02-15T03:07:50.124Z,25.80
2023-02-15T03:10:37.832Z,27.67
2023-02-15T03:13:25.595Z,26.10
2023-02-15T03:16:28.209Z,25.73
2023-02-15T03:19:18.003Z,25.67
2023-02-15T03:22:10.464Z,26.17
2023-02-15T03:25:02.716Z,26.23
2023-02-15T03:27:54.136Z,25.52
2023-02-15T03:30:45.634Z,26.48
2023-02-15T03:33:31.573Z,25.83
2023-02-15T03:36:21.751Z,25.70
2023-02-15T03:39:13.989Z,25.08
2023-02-15T03:42:08.255Z,24.90
2023-02-15T03:44:59.502Z,25.42
2023-02-15T03:47:48.865Z,25.00
2023-02-15T03:50:57.574Z,24.92
2023-02-15T03:53:44.322Z,23.85
2023-02-15T03:56:30.326Z,24.73
2023-02-15T03:59:35.840Z,25.35
2023-02-15T04:02:25.577Z,24.98
2023-02-15T04:05:11.523Z,24.50
2023-02-15T04:07:57.266Z,24.55
2023-02-15T04:10:56.032Z,23.83
2023-02-15T04:13:43.947Z,24.25
2023-02-15T04:16:31.346Z,24.40
2023-02-15T04:19:35.794Z,23.88
2023-02-15T04:22:40.026Z,24.25
2023-02-15T04:25:25.576Z,24.00
2023-02-15T04:28:11.257Z,25.52
2023-02-15T04:30:56.886Z,24.38
2023-02-15T04:33:44.740Z,23.67
2023-02-15T04:36:30.848Z,23.13
2023-02-15T04:39:18.069Z,21.98
2023-02-15T04:42:03.694Z,23.27
2023-02-15T04:44:49.886Z,23.30
2023-02-15T04:47:35.968Z,23.25
2023-02-15T04:50:23.393Z,23.63
2023-02-15T04:53:09.030Z,23.17
2023-02-15T04:55:54.522Z,23.35
2023-02-15T04:58:42.126Z,25.50
2023-02-15T05:01:28.195Z,23.33
2023-02-15T05:04:14.021Z,22.92
2023-02-15T05:07:00.835Z,25.27
2023-02-15T05:09:46.591Z,23.02
2023-02-15T05:12:32.028Z,24.95
2023-02-15T05:15:17.915Z,25.48
2023-02-15T05:18:03.944Z,26.05
2023-02-15T05:20:50.012Z,26.73
2023-02-15T05:23:37.369Z,26.08
2023-02-15T05:26:43.657Z,24.52
2023-02-15T05:29:29.791Z,24.70
2023-02-15T05:32:16.169Z,24.60
2023-02-15T05:35:02.038Z,23.95
2023-02-15T05:37:47.818Z,23.65
2023-02-15T05:40:35.015Z,23.02
2023-02-15T05:43:21.034Z,23.45
2023-02-15T05:46:07.189Z,23.15
2023-02-15T05:48:53.171Z,23.92
2023-02-15T05:51:38.610Z,24.13
2023-02-15T05:54:24.318Z,23.85
2023-02-15T05:57:11.277Z,24.30
2023-02-15T05:59:56.809Z,23.90
2023-02-15T06:02:42.599Z,25.08
2023-02-15T06:05:28.300Z,23.70
2023-02-15T06:08:14.264Z,23.30
2023-02-15T06:11:00.195Z,24.52
2023-02-15T06:13:47.252Z,25.45
2023-02-15T06:16:32.781Z,23.88
2023-02-15T06:19:18.364Z,23.98
2023-02-15T06:22:03.845Z,24.83
2023-02-15T06:24:49.404Z,25.05
2023-02-15T06:27:34.879Z,25.05
2023-02-15T06:30:22.327Z,23.23
2023-02-15T06:33:08.123Z,23.08
2023-02-15T06:35:53.670Z,24.30
2023-02-15T06:38:39.415Z,23.40
2023-02-15T06:41:25.231Z,24.08
2023-02-15T06:44:10.988Z,23.05
2023-02-15T06:46:58.509Z,21.98
2023-02-15T06:49:44.067Z,24.80
2023-02-15T06:52:30.727Z,23.33
2023-02-15T06:55:16.576Z,25.48
2023-02-15T06:58:02.440Z,24.48
2023-02-15T07:00:48.083Z,26.80
2023-02-15T07:03:35.685Z,25.45
2023-02-15T07:06:21.490Z,23.50
2023-02-15T07:09:07.979Z,24.05
2023-02-15T07:12:12.105Z,25.85
2023-02-15T07:14:59.180Z,26.27
2023-02-15T07:17:45.499Z,25.40
2023-02-15T07:20:35.665Z,24.50
2023-02-15T07:23:23.123Z,26.70
2023-02-15T07:26:08.754Z,26.40
2023-02-15T07:28:54.782Z,27.45
2023-02-15T07:31:40.463Z,27.02
2023-02-15T07:34:26.017Z,26.17
2023-02-15T07:37:12.980Z,25.95
2023-02-15T07:39:58.682Z,26.38
2023-02-15T07:42:44.420Z,27.65
2023-02-15T07:45:30.215Z,26.45
2023-02-15T07:48:15.796Z,25.95
2023-02-15T07:51:02.980Z,26.48
2023-02-15T07:53:52.421Z,26.45
2023-02-15T07:56:38.205Z,27.30
2023-02-15T07:59:25.082Z,26.90
2023-02-15T08:02:11.783Z,24.95
2023-02-15T08:04:57.790Z,24.85
2023-02-15T08:07:43.337Z,25.25
2023-02-15T08:10:49.266Z,24.25
2023-02-15T08:13:34.793Z,23.45
2023-02-15T08:16:21.422Z,24.95
2023-02-15T08:19:09.619Z,22.58
2023-02-15T08:22:00.317Z,23.35
2023-02-15T08:24:46.004Z,23.33
2023-02-15T08:27:33.385Z,22.15
2023-02-15T08:30:19.224Z,21.58
2023-02-15T08:33:05.456Z,22.23
2023-02-15T08:35:51.104Z,22.48
2023-02-15T08:38:37.116Z,20.67
2023-02-15T08:41:25.185Z,21.40
2023-02-15T08:44:15.474Z,21.52
2023-02-15T08:47:04.501Z,21.45
2023-02-15T08:49:50.331Z,20.33
2023-02-15T08:52:36.267Z,21.35
2023-02-15T08:55:21.848Z,21.25
2023-02-15T08:58:07.349Z,21.58
2023-02-15T09:00:54.832Z,21.08
2023-02-15T09:03:40.807Z,21.05
2023-02-15T09:06:27.932Z,21.88
2023-02-15T09:09:13.822Z,19.88
2023-02-15T09:11:59.861Z,20.45
2023-02-15T09:14:45.697Z,21.45
2023-02-15T09:17:33.041Z,21.88
2023-02-15T09:20:18.948Z,20.50
2023-02-15T09:23:04.576Z,21.38
2023-02-15T09:25:50.428Z,21.13
2023-02-15T09:28:36.682Z,21.42
2023-02-15T09:31:24.512Z,22.38
2023-02-15T09:34:13.095Z,22.20
2023-02-15T09:36:58.667Z,21.73
2023-02-15T09:39:44.821Z,20.38
2023-02-15T09:42:55.476Z,21.67
2023-02-15T09:46:04.713Z,22.30
2023-02-15T09:48:55.924Z,21.55
2023-02-15T09:52:39.230Z,21.35
2023-02-15T09:55:40.669Z,21.50
2023-02-15T09:58:36.565Z,22.27
2023-02-15T10:01:35.902Z,22.50
2023-02-15T10:04:41.538Z,22.13
2023-02-15T10:07:41.109Z,22.10
2023-02-15T10:10:35.731Z,20.60
2023-02-15T10:13:32.865Z,22.40
2023-02-15T10:16:28.699Z,21.55
2023-02-15T10:19:21.481Z,21.00
2023-02-15T10:22:19.462Z,22.33
2023-02-15T10:25:26.397Z,22.30
2023-02-15T10:28:17.949Z,21.52
2023-02-15T10:34:15.667Z,21.43
2023-02-15T10:37:15.713Z,22.38
2023-02-15T10:40:09.663Z,22.38
2023-02-15T10:43:14.847Z,23.10
2023-02-15T10:46:13.305Z,22.30
2023-02-15T10:49:13.564Z,23.10
2023-02-15T10:52:11.294Z,23.08
2023-02-15T10:55:04.134Z,22.95
2023-02-15T10:58:00.341Z,23.10
2023-02-15T11:00:52.043Z,21.80
2023-02-15T11:06:30.363Z,22.30
2023-02-15T11:09:19.374Z,22.90
2023-02-15T11:12:12.295Z,23.58
2023-02-15T11:15:04.728Z,22.58
2023-02-15T11:17:54.285Z,23.33
2023-02-15T11:20:51.130Z,23.88
2023-02-15T11:23:41.455Z,22.30
2023-02-15T11:26:32.332Z,24.15
2023-02-15T11:29:24.026Z,22.20
2023-02-15T11:32:19.999Z,23.55
2023-02-15T11:35:22.468Z,23.70
2023-02-15T11:38:18.783Z,23.77
2023-02-15T11:41:08.508Z,23.98
2023-02-15T11:43:59.189Z,23.45
2023-02-15T11:46:45.079Z,22.95
2023-02-15T11:49:33.633Z,23.27
2023-02-15T11:52:19.840Z,23.02
2023-02-15T11:55:15.605Z,23.15
2023-02-15T11:58:05.750Z,23.23
2023-02-15T12:00:56.641Z,22.45
2023-02-15T12:03:47.392Z,23.25
2023-02-15T12:06:39.717Z,23.08
2023-02-15T12:09:32.930Z,23.00
2023-02-15T12:12:25.401Z,22.90
2023-02-15T12:15:12.522Z,23.13
2023-02-15T12:17:58.450Z,23.30
2023-02-15T12:20:44.777Z,23.80
2023-02-15T12:23:31.938Z,21.88
2023-02-15T12:26:26.447Z,23.67
2023-02-15T12:29:18.533Z,23.33
2023-02-15T12:32:04.988Z,23.77
2023-02-15T12:34:52.822Z,23.80
2023-02-15T12:37:39.007Z,24.25
2023-02-15T12:40:28.079Z,23.55
2023-02-15T12:43:27.260Z,23.17
2023-02-15T12:46:23.329Z,24.55
2023-02-15T12:49:21.957Z,24.08
2023-02-15T12:52:25.096Z,23.15
2023-02-15T12:55:23.238Z,23.73
2023-02-15T12:58:17.018Z,22.80
2023-02-15T13:01:13.225Z,23.92
2023-02-15T13:04:04.235Z,23.23
2023-02-15T13:06:52.788Z,24.35
2023-02-15T13:09:40.582Z,24.05
2023-02-15T13:12:29.106Z,23.13
2023-02-15T13:15:27.162Z,23.95
2023-02-15T13:18:17.220Z,23.75
2023-02-15T13:21:13.142Z,24.25
2023-02-15T13:24:02.418Z,23.75
2023-02-15T13:26:48.974Z,24.17
2023-02-15T13:29:37.216Z,24.10
2023-02-15T13:32:29.846Z,24.42
2023-02-15T13:35:18.705Z,25.40
2023-02-15T13:38:20.305Z,23.60
2023-02-15T13:41:12.682Z,24.23
2023-02-15T13:44:08.754Z,23.95
2023-02-15T13:47:07.040Z,23.63
2023-02-15T13:50:15.106Z,23.13
2023-02-15T13:53:21.706Z,23.60
2023-02-15T13:56:18.942Z,24.35
2023-02-15T13:59:39.595Z,24.45
2023-02-15T14:02:45.309Z,24.50
2023-02-15T14:05:41.022Z,24.00
2023-02-15T14:08:44.613Z,25.10
2023-02-15T14:11:38.871Z,24.00
2023-02-15T14:14:46.012Z,24.25
2023-02-15T14:17:47.624Z,24.38
2023-02-15T14:23:43.147Z,25.08
2023-02-15T14:26:38.312Z,24.33
2023-02-15T14:29:39.805Z,24.58
2023-02-15T14:32:44.794Z,25.08
2023-02-15T14:35:32.252Z,24.80
2023-02-15T14:38:29.613Z,24.92
2023-02-15T14:41:21.510Z,24.30
2023-02-15T14:44:14.167Z,25.63
2023-02-15T14:47:07.122Z,25.67
2023-02-15T14:49:52.938Z,24.83
2023-02-15T14:53:16.948Z,25.10
2023-02-15T14:56:25.889Z,25.52
2023-02-15T14:59:17.317Z,24.00
2023-02-15T15:02:13.582Z,25.15
2023-02-15T15:05:08.029Z,25.92
2023-02-15T15:07:57.943Z,25.83
2023-02-15T15:10:45.123Z,25.98
2023-02-15T15:13:54.854Z,25.77
2023-02-15T15:16:53.026Z,26.30
2023-02-15T15:20:17.726Z,26.67
2023-02-15T15:23:40.436Z,27.10
2023-02-15T15:26:29.189Z,27.98
2023-02-15T15:29:40.600Z,25.98
2023-02-15T15:35:26.075Z,24.75
2023-02-15T15:38:28.531Z,27.85
2023-02-15T15:41:19.687Z,27.95
2023-02-15T15:44:35.163Z,28.02
2023-02-15T15:47:58.766Z,28.30
2023-02-15T15:50:54.986Z,26.55
2023-02-15T15:53:43.668Z,29.02
2023-02-15T15:56:34.640Z,27.38
2023-02-15T15:59:23.501Z,28.33
2023-02-15T16:02:16.440Z,28.17
2023-02-15T16:05:09.376Z,28.70
2023-02-15T16:07:54.942Z,29.27
2023-02-15T16:10:42.189Z,28.10
2023-02-15T16:13:28.223Z,30.00
2023-02-15T16:16:20.964Z,29.77
2023-02-15T16:19:19.456Z,29.13
2023-02-15T16:22:12.176Z,27.88
2023-02-15T16:25:27.821Z,28.15
2023-02-15T16:28:14.926Z,28.35
2023-02-15T16:31:10.065Z,27.10
2023-02-15T16:33:57.397Z,26.55
2023-02-15T16:36:44.400Z,26.92
2023-02-15T16:39:30.893Z,27.52
2023-02-15T16:42:18.518Z,27.60
2023-02-15T16:45:10.069Z,27.67
2023-02-15T16:47:58.642Z,28.58
2023-02-15T16:50:50.321Z,26.90
2023-02-15T16:53:38.497Z,28.20
2023-02-15T16:56:25.128Z,29.00
2023-02-15T16:59:20.930Z,28.25
2023-02-15T17:02:20.377Z,28.30
2023-02-15T17:05:18.615Z,27.73
2023-02-15T17:08:17.488Z,29.65
2023-02-15T17:11:17.923Z,27.58
2023-02-15T17:14:31.561Z,27.88
2023-02-15T17:17:17.044Z,28.25
2023-02-15T17:20:03.235Z,28.50
2023-02-15T17:22:49.166Z,28.10
2023-02-15T17:25:40.045Z,26.90
2023-02-15T17:28:30.867Z,28.00
2023-02-15T17:31:19.151Z,27.83
2023-02-15T17:34:05.706Z,27.15
2023-02-15T17:36:59.257Z,27.48
2023-02-15T17:39:45.313Z,27.00
2023-02-15T17:42:31.020Z,27.20
2023-02-15T17:45:18.442Z,27.80
2023-02-15T17:48:06.491Z,28.65
2023-02-15T17:50:52.396Z,28.27
2023-02-15T17:53:38.417Z,28.02
2023-02-15T17:56:24.446Z,28.70
2023-02-15T17:59:12.427Z,27.67
2023-02-15T18:02:18.647Z,29.30
2023-02-15T18:05:22.910Z,27.48
2023-02-15T18:08:30.909Z,28.45
2023-02-15T18:11:36.319Z,28.38
2023-02-15T18:14:21.940Z,27.63
2023-02-15T18:17:11.860Z,28.40
2023-02-15T18:19:57.772Z,19.77
2023-02-15T18:22:43.961Z,27.90
2023-02-15T18:25:29.957Z,29.83
2023-02-15T18:28:15.644Z,31.02
2023-02-15T18:31:02.192Z,31.23
2023-02-15T18:33:54.072Z,30.42
2023-02-15T18:36:44.079Z,30.13
2023-02-15T18:39:37.274Z,30.40
2023-02-15T18:42:24.795Z,28.33
2023-02-15T18:45:16.906Z,27.90
2023-02-15T18:48:02.875Z,28.55
2023-02-15T18:50:51.600Z,28.27
2023-02-15T18:53:37.474Z,28.17
2023-02-15T18:56:23.960Z,28.75
2023-02-15T18:59:15.662Z,28.50
2023-02-15T19:02:01.868Z,31.52
2023-02-15T19:04:47.641Z,31.75
2023-02-15T19:07:36.702Z,31.30
2023-02-15T19:10:24.940Z,31.25
2023-02-15T19:13:11.181Z,31.52
2023-02-15T19:15:58.941Z,33.08
2023-02-15T19:18:45.126Z,31.55
2023-02-15T19:21:32.236Z,31.27
2023-02-15T19:24:24.673Z,30.17
2023-02-15T19:27:21.093Z,29.80
2023-02-15T19:30:16.400Z,27.45
2023-02-15T19:33:02.818Z,28.15
2023-02-15T19:35:54.052Z,27.98
2023-02-15T19:38:41.160Z,27.88
2023-02-15T19:41:33.154Z,28.58
2023-02-15T19:44:19.058Z,28.27
2023-02-15T19:47:10.197Z,26.85
2023-02-15T19:52:50.333Z,26.60
2023-02-15T19:55:37.984Z,27.67
2023-02-15T19:58:25.845Z,28.92
2023-02-15T20:01:12.414Z,30.55
2023-02-15T20:03:59.246Z,29.38
2023-02-15T20:06:45.600Z,29.50
2023-02-15T20:09:35.499Z,29.42
2023-02-15T20:12:23.383Z,29.23
2023-02-15T20:15:20.595Z,28.95
2023-02-15T20:18:06.999Z,28.17
2023-02-15T20:20:55.090Z,27.88
2023-02-15T20:23:41.064Z,28.25
2023-02-15T20:26:29.910Z,29.08
2023-02-15T20:29:18.520Z,28.25
2023-02-15T20:32:06.503Z,28.85
2023-02-15T20:34:52.540Z,28.55
2023-02-15T20:37:38.747Z,28.60
2023-02-15T20:40:26.398Z,29.85
2023-02-15T20:43:15.368Z,29.75
2023-02-15T20:46:02.500Z,29.92
2023-02-15T20:48:50.271Z,29.73
2023-02-15T20:51:36.376Z,29.63
2023-02-15T20:54:24.683Z,29.00
2023-02-15T20:57:12.433Z,29.45
2023-02-15T20:59:58.011Z,30.02
2023-02-15T21:02:43.898Z,30.23
2023-02-15T21:05:33.414Z,31.85
2023-02-15T21:08:21.251Z,30.10
2023-02-15T21:11:18.154Z,29.40
2023-02-15T21:14:03.842Z,29.38
2023-02-15T21:16:50.713Z,30.35
2023-02-15T21:19:39.679Z,31.02
2023-02-15T21:22:27.913Z,31.05
2023-02-15T21:25:15.873Z,30.55
2023-02-15T21:28:06.104Z,29.83
2023-02-15T21:30:52.913Z,30.40
2023-02-15T21:33:38.859Z,30.15
2023-02-15T21:36:25.734Z,30.75
2023-02-15T21:39:21.258Z,31.10
2023-02-15T21:42:29.751Z,31.77
2023-02-15T21:45:34.722Z,31.75
2023-02-15T21:48:23.616Z,30.88
2023-02-15T21:51:27.642Z,31.42
2023-02-15T21:54:14.272Z,31.58
2023-02-15T21:57:01.765Z,30.42
2023-02-15T21:59:47.854Z,31.65
2023-02-15T22:02:34.014Z,31.20
2023-02-15T22:05:22.401Z,31.23
2023-02-15T22:08:12.909Z,32.03
2023-02-15T22:10:58.702Z,31.55
2023-02-15T22:13:46.498Z,32.95
2023-02-15T22:16:32.082Z,33.08
2023-02-15T22:19:18.397Z,31.48
2023-02-15T22:22:03.926Z,32.88
2023-02-15T22:24:50.155Z,32.00
2023-02-15T22:27:39.583Z,31.63
2023-02-15T22:30:29.969Z,32.40
2023-02-15T22:33:23.701Z,34.08
2023-02-15T22:36:21.810Z,33.08
2023-02-15T22:39:07.712Z,34.78
2023-02-15T22:41:54.599Z,33.95
2023-02-15T22:44:40.269Z,33.47
2023-02-15T22:47:29.236Z,33.45
2023-02-15T22:50:18.281Z,33.75
2023-02-15T22:53:04.259Z,33.80
2023-02-15T22:55:50.259Z,33.70
2023-02-15T22:58:36.077Z,33.75
2023-02-15T23:01:26.237Z,33.92
2023-02-15T23:04:17.166Z,32.75
2023-02-15T23:07:10.338Z,33.13
2023-02-15T23:09:55.976Z,31.98
2023-02-15T23:13:02.010Z,33.30
2023-02-15T23:15:49.773Z,34.05
2023-02-15T23:18:38.642Z,34.90
2023-02-15T23:21:28.730Z,33.17
2023-02-15T23:24:19.456Z,33.75
2023-02-15T23:27:25.408Z,33.85
2023-02-15T23:30:14.122Z,33.28
2023-02-15T23:33:00.149Z,34.72
2023-02-15T23:35:45.607Z,33.80
2023-02-15T23:38:33.424Z,34.53
2023-02-15T23:41:23.007Z,34.42
2023-02-15T23:44:12.165Z,34.20
2023-02-15T23:46:58.192Z,34.40
2023-02-15T23:49:43.698Z,32.90
2023-02-15T23:52:29.394Z,35.95
2023-02-15T23:55:17.448Z,34.45
2023-02-15T23:58:03.802Z,34.72
